createdAt,value
2024-01-08T00:01:28.543Z,101736.81
2024-01-08T00:03:58.452Z,101738.94
2024-01-08T00:06:28.888Z,101742.47
2024-01-08T00:08:58.882Z,101748.13
2024-01-08T00:11:28.744Z,101743.81
2024-01-08T00:13:58.762Z,101749.75
2024-01-08T00:16:31.747Z,101749.50
2024-01-08T00:19:01.822Z,101748.75
2024-01-08T00:21:31.613Z,101744.91
2024-01-08T00:24:01.612Z,101744.88
2024-01-08T00:26:32.711Z,101741.09
2024-01-08T00:29:03.452Z,101749.25
2024-01-08T00:31:35.987Z,101752.41
2024-01-08T00:34:06.526Z,101748.97
2024-01-08T00:36:40.996Z,101747.28
2024-01-08T00:39:11.492Z,101751.75
2024-01-08T00:41:41.545Z,101749.19
2024-01-08T00:44:14.965Z,101755.22
2024-01-08T00:46:47.594Z,101754.41
2024-01-08T00:49:20.327Z,101755.69
2024-01-08T00:51:50.377Z,101752.16
2024-01-08T00:54:20.939Z,101761.06
2024-01-08T00:56:51.068Z,101762.19
2024-01-08T00:59:21.403Z,101750.00
2024-01-08T01:01:54.290Z,101760.66
2024-01-08T01:04:24.777Z,101762.25
2024-01-08T01:06:55.263Z,101764.75
2024-01-08T01:09:25.466Z,101765.59
2024-01-08T01:11:55.692Z,101769.19
2024-01-08T01:14:27.977Z,101770.03
2024-01-08T01:17:00.964Z,101774.81
2024-01-08T01:19:37.338Z,101779.69
2024-01-08T01:22:07.761Z,101788.47
2024-01-08T01:24:37.836Z,101791.16
2024-01-08T01:27:08.930Z,101789.50
2024-01-08T01:29:38.996Z,101792.25
2024-01-08T01:32:12.386Z,101787.31
2024-01-08T01:34:51.622Z,101799.88
2024-01-08T01:37:21.699Z,101799.84
2024-01-08T01:39:51.968Z,101799.34
2024-01-08T01:42:35.959Z,101802.59
2024-01-08T01:45:07.009Z,101793.63
2024-01-08T01:47:40.529Z,101793.03
2024-01-08T01:50:13.124Z,101798.22
2024-01-08T01:52:45.692Z,101784.56
2024-01-08T01:55:17.931Z,101788.75
2024-01-08T01:57:51.464Z,101783.50
2024-01-08T02:00:26.248Z,101790.53
2024-01-08T02:03:08.299Z,101779.06
2024-01-08T02:05:39.801Z,101782.47
2024-01-08T02:08:13.500Z,101785.69
2024-01-08T02:10:44.162Z,101782.97
2024-01-08T02:13:14.500Z,101792.00
2024-01-08T02:15:44.448Z,101783.50
2024-01-08T02:18:17.316Z,101784.84
2024-01-08T02:20:47.385Z,101785.09
2024-01-08T02:23:20.161Z,101788.66
2024-01-08T02:25:50.350Z,101784.50
2024-01-08T02:28:20.300Z,101786.41
2024-01-08T02:30:59.203Z,101783.19
2024-01-08T02:33:29.398Z,101789.41
2024-01-08T02:36:03.506Z,101781.31
2024-01-08T02:38:36.409Z,101792.13
2024-01-08T02:41:06.514Z,101786.13
2024-01-08T02:43:36.414Z,101795.94
2024-01-08T02:46:08.142Z,101787.53
2024-01-08T02:48:38.445Z,101803.53
2024-01-08T02:51:08.682Z,101806.84
2024-01-08T02:53:41.517Z,101809.56
2024-01-08T02:56:21.826Z,101814.75
2024-01-08T02:58:52.265Z,101810.44
2024-01-08T03:01:22.357Z,101820.00
2024-01-08T03:03:52.410Z,101817.81
2024-01-08T03:06:22.826Z,101821.59
2024-01-08T03:08:55.298Z,101827.88
2024-01-08T03:11:34.651Z,101829.22
2024-01-08T03:14:05.200Z,101823.00
2024-01-08T03:16:35.525Z,101826.81
2024-01-08T03:19:11.969Z,101834.47
2024-01-08T03:21:42.750Z,101831.19
2024-01-08T03:24:15.425Z,101845.59
2024-01-08T03:26:45.810Z,101840.44
2024-01-08T03:32:06.607Z,101847.25
2024-01-08T03:34:38.784Z,101857.03
2024-01-08T03:37:08.982Z,101849.41
2024-01-08T03:39:41.800Z,101848.91
2024-01-08T03:42:14.965Z,101869.28
2024-01-08T03:44:48.072Z,101873.34
2024-01-08T03:47:18.165Z,101871.72
2024-01-08T03:49:48.514Z,101860.56
2024-01-08T03:52:18.437Z,101864.63
2024-01-08T03:54:51.308Z,101868.41
2024-01-08T03:57:21.787Z,101875.72
2024-01-08T03:59:51.991Z,101871.88
2024-01-08T04:02:22.124Z,101880.00
2024-01-08T04:04:52.567Z,101886.50
2024-01-08T04:07:22.734Z,101882.44
2024-01-08T04:09:55.665Z,101885.66
2024-01-08T04:12:25.631Z,101884.00
2024-01-08T04:14:55.758Z,101888.09
2024-01-08T04:17:27.868Z,101872.00
2024-01-08T04:19:58.246Z,101889.59
2024-01-08T04:22:28.390Z,101890.75
2024-01-08T04:25:04.229Z,101892.03
2024-01-08T04:27:34.342Z,101895.97
2024-01-08T04:30:04.536Z,101902.28
2024-01-08T04:32:34.491Z,101899.22
2024-01-08T04:35:04.631Z,101908.88
2024-01-08T04:37:35.107Z,101897.81
2024-01-08T04:40:09.257Z,101918.91
2024-01-08T04:42:39.136Z,101914.50
2024-01-08T04:45:09.840Z,101922.06
2024-01-08T04:47:40.120Z,101919.34
2024-01-08T04:50:11.365Z,101923.66
2024-01-08T04:52:41.618Z,101923.56
2024-01-08T04:55:14.585Z,101932.44
2024-01-08T04:57:47.482Z,101924.59
2024-01-08T05:00:18.480Z,101932.75
2024-01-08T05:02:48.599Z,101930.19
2024-01-08T05:05:18.812Z,101933.25
2024-01-08T05:07:48.762Z,101939.72
2024-01-08T05:10:21.865Z,101935.75
2024-01-08T05:12:51.861Z,101939.66
2024-01-08T05:15:21.725Z,101937.81
2024-01-08T05:17:51.637Z,101939.88
2024-01-08T05:20:21.802Z,101945.13
2024-01-08T05:22:52.006Z,101939.72
2024-01-08T05:25:24.730Z,101953.19
2024-01-08T05:27:54.914Z,101947.28
2024-01-08T05:30:24.864Z,101953.53
2024-01-08T05:32:59.227Z,101954.22
2024-01-08T05:35:35.354Z,101955.13
2024-01-08T05:38:09.331Z,101960.03
2024-01-08T05:40:42.096Z,101963.59
2024-01-08T05:43:12.118Z,101964.88
2024-01-08T05:45:42.705Z,101956.56
2024-01-08T05:48:14.034Z,101956.88
2024-01-08T05:50:44.630Z,101967.94
2024-01-08T05:53:14.505Z,101965.88
2024-01-08T05:55:47.588Z,101967.94
2024-01-08T05:58:19.817Z,101973.31
2024-01-08T06:00:49.967Z,101972.88
2024-01-08T06:03:19.776Z,101962.66
2024-01-08T06:05:49.553Z,101963.69
2024-01-08T06:08:19.799Z,101979.09
2024-01-08T06:10:53.185Z,101981.41
2024-01-08T06:13:23.458Z,101980.66
2024-01-08T06:15:53.553Z,101980.56
2024-01-08T06:18:23.759Z,101999.97
2024-01-08T06:20:53.923Z,101990.72
2024-01-08T06:23:23.795Z,101996.81
2024-01-08T06:25:57.435Z,102004.00
2024-01-08T06:28:27.417Z,102010.31
2024-01-08T06:30:57.684Z,102016.34
2024-01-08T06:33:27.927Z,102018.00
2024-01-08T06:35:58.041Z,102015.00
2024-01-08T06:38:28.344Z,102011.47
2024-01-08T06:41:01.037Z,102018.00
2024-01-08T06:43:31.584Z,102014.69
2024-01-08T06:46:03.097Z,102025.88
2024-01-08T06:48:33.018Z,102031.13
2024-01-08T06:51:04.238Z,102032.75
2024-01-08T06:53:37.649Z,102046.50
2024-01-08T06:56:10.898Z,102049.28
2024-01-08T06:58:41.208Z,102048.81
2024-01-08T07:01:11.367Z,102057.16
2024-01-08T07:03:41.607Z,102060.59
2024-01-08T07:06:11.677Z,102063.53
2024-01-08T07:08:42.033Z,102061.91
2024-01-08T07:11:23.290Z,102069.34
2024-01-08T07:13:54.003Z,102074.66
2024-01-08T07:16:24.259Z,102076.09
2024-01-08T07:18:54.180Z,102077.81
2024-01-08T07:21:24.286Z,102077.91
2024-01-08T07:23:54.105Z,102089.38
2024-01-08T07:26:26.673Z,102086.97
2024-01-08T07:28:57.114Z,102093.34
2024-01-08T07:31:27.113Z,102088.78
2024-01-08T07:33:56.931Z,102094.59
2024-01-08T07:36:27.085Z,102098.75
2024-01-08T07:38:59.605Z,102103.84
2024-01-08T07:41:32.293Z,102100.81
2024-01-08T07:44:02.203Z,102106.22
2024-01-08T07:46:31.926Z,102103.53
2024-01-08T07:49:01.886Z,102110.41
2024-01-08T07:51:33.865Z,102113.84
2024-01-08T07:54:03.925Z,102120.56
2024-01-08T07:56:45.470Z,102118.91
2024-01-08T07:59:22.879Z,102118.38
2024-01-08T08:01:52.655Z,102107.63
2024-01-08T08:04:22.527Z,102120.06
2024-01-08T08:06:52.331Z,102130.88
2024-01-08T08:09:22.163Z,102140.25
2024-01-08T08:11:54.654Z,102141.13
2024-01-08T08:14:24.552Z,102143.66
2024-01-08T08:16:54.264Z,102155.31
2024-01-08T08:19:26.591Z,102152.94
2024-01-08T08:21:57.165Z,102141.00
2024-01-08T08:24:26.831Z,102150.72
2024-01-08T08:26:59.301Z,102158.75
2024-01-08T08:29:30.263Z,102151.78
2024-01-08T08:32:01.950Z,102156.25
2024-01-08T08:34:32.308Z,102159.03
2024-01-08T08:37:05.325Z,102161.75
2024-01-08T08:39:35.694Z,102161.56
2024-01-08T08:42:09.402Z,102173.53
2024-01-08T08:44:39.421Z,102183.81
2024-01-08T08:47:09.187Z,102185.56
2024-01-08T08:49:39.168Z,102194.34
2024-01-08T08:52:09.272Z,102181.91
2024-01-08T08:54:39.185Z,102178.06
2024-01-08T08:57:11.453Z,102182.28
2024-01-08T08:59:41.328Z,102186.19
2024-01-08T09:02:11.012Z,102192.75
2024-01-08T09:04:40.868Z,102189.97
2024-01-08T09:07:10.875Z,102195.34
2024-01-08T09:09:40.860Z,102197.66
2024-01-08T09:12:13.383Z,102198.13
2024-01-08T09:14:43.179Z,102209.34
2024-01-08T09:17:13.345Z,102206.78
2024-01-08T09:19:43.129Z,102204.13
2024-01-08T09:22:12.902Z,102217.38
2024-01-08T09:24:42.736Z,102228.91
2024-01-08T09:27:14.963Z,102223.78
2024-01-08T09:29:44.772Z,102219.19
2024-01-08T09:32:14.470Z,102222.78
2024-01-08T09:34:44.406Z,102224.44
2024-01-08T09:37:14.010Z,102228.00
2024-01-08T09:39:43.860Z,102235.78
2024-01-08T09:42:17.760Z,102232.22
2024-01-08T09:44:47.419Z,102219.00
2024-01-08T09:47:18.952Z,102238.75
2024-01-08T09:49:48.997Z,102237.66
2024-01-08T09:52:20.775Z,102236.78
2024-01-08T09:54:53.068Z,102232.13
2024-01-08T09:57:25.890Z,102239.72
2024-01-08T09:59:55.620Z,102223.78
2024-01-08T10:02:25.384Z,102224.38
2024-01-08T10:04:55.544Z,102223.06
2024-01-08T10:07:25.368Z,102227.44
2024-01-08T10:09:54.990Z,102217.94
2024-01-08T10:12:27.469Z,102227.53
2024-01-08T10:14:58.277Z,102222.53
2024-01-08T10:17:28.064Z,102222.88
2024-01-08T10:20:09.410Z,102220.94
2024-01-08T10:22:39.742Z,102231.88
2024-01-08T10:25:10.056Z,102231.81
2024-01-08T10:27:42.609Z,102237.06
2024-01-08T10:30:14.560Z,102232.56
2024-01-08T10:32:45.015Z,102228.00
2024-01-08T10:35:15.054Z,102224.94
2024-01-08T10:37:46.631Z,102225.13
2024-01-08T10:40:17.196Z,102217.50
2024-01-08T10:42:49.802Z,102225.19
2024-01-08T10:45:19.506Z,102224.56
2024-01-08T10:47:53.905Z,102226.13
2024-01-08T10:50:25.138Z,102227.22
2024-01-08T10:52:58.020Z,102225.38
2024-01-08T10:55:28.006Z,102232.81
2024-01-08T10:58:08.681Z,102231.09
2024-01-08T11:00:39.413Z,102230.56
2024-01-08T11:03:10.784Z,102233.81
2024-01-08T11:05:41.526Z,102227.78
2024-01-08T11:08:14.995Z,102234.91
2024-01-08T11:10:44.737Z,102229.06
2024-01-08T11:13:18.958Z,102226.44
2024-01-08T11:15:49.157Z,102230.44
2024-01-08T11:18:31.798Z,102223.75
2024-01-08T11:21:03.270Z,102225.38
2024-01-08T11:23:42.263Z,102230.13
2024-01-08T11:26:15.413Z,102230.94
2024-01-08T11:29:04.467Z,102229.53
2024-01-08T11:32:05.359Z,102232.09
2024-01-08T11:35:05.517Z,102227.38
2024-01-08T11:37:34.836Z,102233.34
2024-01-08T11:40:06.679Z,102235.56
2024-01-08T11:42:36.507Z,102228.84
2024-01-08T11:45:09.733Z,102227.66
2024-01-08T11:47:40.776Z,102218.69
2024-01-08T11:50:11.977Z,102218.81
2024-01-08T11:52:43.224Z,102215.91
2024-01-08T11:55:13.977Z,102212.47
2024-01-08T11:57:43.982Z,102227.16
2024-01-08T12:00:24.475Z,102225.88
2024-01-08T12:03:04.585Z,102232.38
2024-01-08T12:05:35.619Z,102230.41
2024-01-08T12:08:05.359Z,102223.13
2024-01-08T12:10:35.278Z,102227.94
2024-01-08T12:13:05.293Z,102221.28
2024-01-08T12:15:37.622Z,102232.06
2024-01-08T12:18:08.093Z,102232.22
2024-01-08T12:20:38.027Z,102232.31
2024-01-08T12:23:09.612Z,102235.88
2024-01-08T12:25:40.070Z,102241.44
2024-01-08T12:28:11.769Z,102234.50
2024-01-08T12:30:45.718Z,102232.94
2024-01-08T12:33:17.185Z,102233.28
2024-01-08T12:35:47.157Z,102240.66
2024-01-08T12:38:17.055Z,102234.34
2024-01-08T12:40:46.783Z,102243.25
2024-01-08T12:43:16.493Z,102239.91
2024-01-08T12:45:51.962Z,102247.09
2024-01-08T12:48:22.155Z,102240.88
2024-01-08T12:50:52.241Z,102244.69
2024-01-08T12:53:22.404Z,102238.47
2024-01-08T12:55:53.167Z,102241.38
2024-01-08T12:58:23.191Z,102240.78
2024-01-08T13:00:56.654Z,102231.63
2024-01-08T13:03:26.636Z,102231.16
2024-01-08T13:05:56.576Z,102238.28
2024-01-08T13:08:26.297Z,102236.91
2024-01-08T13:10:56.025Z,102242.53
2024-01-08T13:13:25.742Z,102241.84
2024-01-08T13:15:58.166Z,102238.38
2024-01-08T13:18:28.091Z,102241.50
2024-01-08T13:20:58.173Z,102245.50
2024-01-08T13:23:28.072Z,102250.28
2024-01-08T13:25:58.107Z,102252.75
2024-01-08T13:28:28.754Z,102255.72
2024-01-08T13:31:04.900Z,102246.19
2024-01-08T13:33:35.406Z,102250.41
2024-01-08T13:36:06.334Z,102255.41
2024-01-08T13:38:36.221Z,102258.03
2024-01-08T13:41:06.469Z,102255.59
2024-01-08T13:43:36.865Z,102255.84
2024-01-08T13:46:10.501Z,102260.56
2024-01-08T13:48:40.845Z,102259.88
2024-01-08T13:51:11.347Z,102270.31
2024-01-08T13:53:41.911Z,102269.72
2024-01-08T13:56:11.728Z,102273.63
2024-01-08T13:58:41.605Z,102273.34
2024-01-08T14:01:14.133Z,102268.88
2024-01-08T14:03:44.453Z,102266.16
2024-01-08T14:06:15.051Z,102286.28
2024-01-08T14:08:45.219Z,102282.78
2024-01-08T14:11:15.029Z,102290.69
2024-01-08T14:13:44.826Z,102286.41
2024-01-08T14:16:17.505Z,102298.56
2024-01-08T14:18:47.476Z,102297.53
2024-01-08T14:21:17.270Z,102302.84
2024-01-08T14:23:47.967Z,102302.31
2024-01-08T14:26:17.979Z,102311.38
2024-01-08T14:28:47.622Z,102315.41
2024-01-08T14:31:19.983Z,102316.28
2024-01-08T14:33:50.057Z,102316.63
2024-01-08T14:36:20.562Z,102314.53
2024-01-08T14:38:50.274Z,102328.53
2024-01-08T14:41:21.081Z,102337.94
2024-01-08T14:43:51.796Z,102325.13
2024-01-08T14:46:24.150Z,102333.03
2024-01-08T14:48:54.308Z,102338.53
2024-01-08T14:51:24.268Z,102340.06
2024-01-08T14:53:54.208Z,102333.56
2024-01-08T14:56:24.509Z,102343.88
2024-01-08T14:58:55.014Z,102346.00
2024-01-08T15:01:27.426Z,102343.28
2024-01-08T15:03:58.474Z,102348.06
2024-01-08T15:06:28.331Z,102359.44
2024-01-08T15:08:58.101Z,102353.97
2024-01-08T15:11:27.883Z,102365.53
2024-01-08T15:13:57.741Z,102365.28
2024-01-08T15:16:30.263Z,102364.19
2024-01-08T15:19:00.218Z,102367.09
2024-01-08T15:21:30.050Z,102370.84
2024-01-08T15:23:59.725Z,102364.59
2024-01-08T15:26:30.868Z,102367.19
2024-01-08T15:29:00.706Z,102376.59
2024-01-08T15:31:33.839Z,102382.09
2024-01-08T15:34:04.670Z,102381.94
2024-01-08T15:36:35.443Z,102380.88
2024-01-08T15:39:06.756Z,102384.50
2024-01-08T15:41:37.783Z,102384.56
2024-01-08T15:44:08.072Z,102389.31
2024-01-08T15:46:45.138Z,102383.28
2024-01-08T15:49:15.297Z,102380.63
2024-01-08T15:51:44.975Z,102384.88
2024-01-08T15:54:14.650Z,102386.84
2024-01-08T15:56:46.231Z,102391.66
2024-01-08T15:59:16.292Z,102384.34
2024-01-08T16:01:48.649Z,102394.13
2024-01-08T16:04:18.311Z,102389.41
2024-01-08T16:06:50.409Z,102393.78
2024-01-08T16:09:20.869Z,102398.72
2024-01-08T16:11:50.635Z,102394.25
2024-01-08T16:14:20.350Z,102390.47
2024-01-08T16:16:53.764Z,102398.19
2024-01-08T16:19:23.929Z,102401.66
2024-01-08T16:21:53.882Z,102404.00
2024-01-08T16:24:23.707Z,102402.72
2024-01-08T16:26:53.567Z,102403.47
2024-01-08T16:29:23.627Z,102407.81
2024-01-08T16:31:55.919Z,102406.31
2024-01-08T16:34:28.362Z,102402.34
2024-01-08T16:37:02.016Z,102408.16
2024-01-08T16:39:31.668Z,102404.38
2024-01-08T16:42:01.566Z,102411.63
2024-01-08T16:44:31.339Z,102415.34
2024-01-08T16:47:03.879Z,102414.66
2024-01-08T16:49:34.685Z,102417.66
2024-01-08T16:52:06.448Z,102414.34
2024-01-08T16:54:38.581Z,102423.31
2024-01-08T16:57:08.610Z,102419.63
2024-01-08T16:59:38.295Z,102421.69
2024-01-08T17:02:10.996Z,102416.66
2024-01-08T17:04:40.841Z,102424.09
2024-01-08T17:07:10.466Z,102424.16
2024-01-08T17:09:43.345Z,102428.69
2024-01-08T17:12:13.234Z,102432.41
2024-01-08T17:14:43.883Z,102429.19
2024-01-08T17:17:17.581Z,102430.97
2024-01-08T17:19:47.382Z,102430.19
2024-01-08T17:22:17.300Z,102435.44
2024-01-08T17:24:47.045Z,102435.38
2024-01-08T17:27:20.408Z,102427.88
2024-01-08T17:29:50.340Z,102430.41
2024-01-08T17:32:22.794Z,102442.41
2024-01-08T17:34:52.766Z,102432.56
2024-01-08T17:37:24.497Z,102434.94
2024-01-08T17:39:55.449Z,102442.66
2024-01-08T17:42:25.426Z,102441.75
2024-01-08T17:44:55.305Z,102446.59
2024-01-08T17:47:27.856Z,102449.13
2024-01-08T17:49:59.148Z,102442.72
2024-01-08T17:52:29.032Z,102446.84
2024-01-08T17:54:58.676Z,102447.75
2024-01-08T17:57:28.561Z,102444.22
2024-01-08T17:59:58.273Z,102454.03
2024-01-08T18:02:30.789Z,102453.75
2024-01-08T18:05:01.018Z,102456.09
2024-01-08T18:07:32.296Z,102447.53
2024-01-08T18:10:02.169Z,102457.00
2024-01-08T18:12:33.417Z,102454.44
2024-01-08T18:15:04.485Z,102457.16
2024-01-08T18:17:36.732Z,102459.94
2024-01-08T18:20:07.217Z,102460.50
2024-01-08T18:22:36.977Z,102463.44
2024-01-08T18:25:07.271Z,102461.81
2024-01-08T18:27:36.985Z,102459.44
2024-01-08T18:30:07.490Z,102457.28
2024-01-08T18:32:39.942Z,102464.75
2024-01-08T18:35:10.946Z,102463.44
2024-01-08T18:37:42.060Z,102462.38
2024-01-08T18:40:14.173Z,102465.47
2024-01-08T18:42:43.983Z,102476.31
2024-01-08T18:45:13.881Z,102480.81
2024-01-08T18:47:46.274Z,102478.19
2024-01-08T18:50:16.442Z,102477.03
2024-01-08T18:52:46.128Z,102491.75
2024-01-08T18:55:15.782Z,102500.59
2024-01-08T18:57:46.604Z,102494.03
2024-01-08T19:00:17.076Z,102504.84
2024-01-08T19:02:51.309Z,102506.84
2024-01-08T19:05:21.882Z,102513.09
2024-01-08T19:07:51.800Z,102509.66
2024-01-08T19:10:23.392Z,102513.69
2024-01-08T19:12:53.474Z,102504.03
2024-01-08T19:15:23.146Z,102519.59
2024-01-08T19:17:55.766Z,102518.41
2024-01-08T19:20:27.291Z,102517.63
2024-01-08T19:22:57.815Z,102523.59
2024-01-08T19:25:28.029Z,102518.19
2024-01-08T19:27:57.850Z,102521.25
2024-01-08T19:30:27.597Z,102535.25
2024-01-08T19:33:00.759Z,102535.00
2024-01-08T19:35:31.501Z,102538.09
2024-01-08T19:38:01.218Z,102532.19
2024-01-08T19:40:32.448Z,102542.09
2024-01-08T19:43:02.711Z,102540.09
2024-01-08T19:45:32.467Z,102541.28
2024-01-08T19:48:04.952Z,102542.59
2024-01-08T19:50:34.942Z,102549.03
2024-01-08T19:53:04.723Z,102554.44
2024-01-08T19:55:34.420Z,102548.47
2024-01-08T19:58:04.190Z,102548.47
2024-01-08T20:00:34.840Z,102556.47
2024-01-08T20:03:07.814Z,102554.56
2024-01-08T20:05:38.931Z,102566.69
2024-01-08T20:08:09.691Z,102563.03
2024-01-08T20:10:39.348Z,102572.69
2024-01-08T20:13:10.859Z,102566.31
2024-01-08T20:15:40.721Z,102568.69
2024-01-08T20:18:13.196Z,102568.91
2024-01-08T20:20:45.278Z,102571.94
2024-01-08T20:23:15.477Z,102582.63
2024-01-08T20:25:46.726Z,102577.72
2024-01-08T20:28:16.693Z,102580.06
2024-01-08T20:30:49.276Z,102586.25
2024-01-08T20:33:21.740Z,102588.25
2024-01-08T20:35:51.927Z,102589.78
2024-01-08T20:38:21.610Z,102592.63
2024-01-08T20:40:51.393Z,102596.38
2024-01-08T20:43:21.558Z,102599.97
2024-01-08T20:45:52.208Z,102592.56
2024-01-08T20:48:24.751Z,102597.03
2024-01-08T20:50:54.707Z,102602.47
2024-01-08T20:53:24.402Z,102598.66
2024-01-08T20:55:54.259Z,102604.22
2024-01-08T20:58:24.101Z,102600.34
2024-01-08T21:00:53.729Z,102594.25
2024-01-08T21:03:26.220Z,102606.47
2024-01-08T21:05:56.226Z,102604.41
2024-01-08T21:08:26.247Z,102603.78
2024-01-08T21:10:58.238Z,102611.78
2024-01-08T21:13:28.191Z,102606.84
2024-01-08T21:15:57.792Z,102614.34
2024-01-08T21:18:30.431Z,102613.63
2024-01-08T21:21:00.462Z,102614.25
2024-01-08T21:23:31.110Z,102614.66
2024-01-08T21:26:00.883Z,102621.72
2024-01-08T21:28:30.599Z,102621.13
2024-01-08T21:31:00.630Z,102636.16
2024-01-08T21:33:33.371Z,102636.34
2024-01-08T21:36:03.823Z,102630.00
2024-01-08T21:38:37.534Z,102642.69
2024-01-08T21:41:08.086Z,102641.38
2024-01-08T21:43:38.470Z,102636.75
2024-01-08T21:46:08.117Z,102638.84
2024-01-08T21:48:42.806Z,102638.88
2024-01-08T21:51:13.291Z,102645.00
2024-01-08T21:53:43.311Z,102645.31
2024-01-08T21:56:13.127Z,102650.84
2024-01-08T21:58:45.255Z,102642.50
2024-01-08T22:01:15.471Z,102644.25
2024-01-08T22:03:47.933Z,102650.25
2024-01-08T22:06:18.604Z,102653.56
2024-01-08T22:08:48.378Z,102650.19
2024-01-08T22:11:19.208Z,102659.38
2024-01-08T22:13:49.591Z,102654.97
2024-01-08T22:16:19.278Z,102654.75
2024-01-08T22:18:51.806Z,102661.19
2024-01-08T22:21:21.627Z,102667.63
2024-01-08T22:23:51.831Z,102662.84
2024-01-08T22:26:23.099Z,102664.56
2024-01-08T22:28:55.048Z,102659.22
2024-01-08T22:31:24.768Z,102665.06
2024-01-08T22:33:57.165Z,102662.97
2024-01-08T22:36:27.079Z,102662.06
2024-01-08T22:38:57.119Z,102657.19
2024-01-08T22:41:26.987Z,102658.34
2024-01-08T22:44:05.357Z,102665.38
2024-01-08T22:46:40.844Z,102655.47
2024-01-08T22:49:13.173Z,102657.66
2024-01-08T22:51:43.049Z,102662.31
2024-01-08T22:54:12.728Z,102652.78
2024-01-08T22:56:42.467Z,102652.72
2024-01-08T22:59:13.616Z,102655.03
2024-01-08T23:01:48.974Z,102654.13
2024-01-08T23:04:22.513Z,102651.38
2024-01-08T23:06:52.618Z,102649.75
2024-01-08T23:09:22.675Z,102650.66
2024-01-08T23:11:52.562Z,102647.91
2024-01-08T23:14:22.434Z,102649.34
2024-01-08T23:16:52.199Z,102654.78
2024-01-08T23:19:24.813Z,102647.22
2024-01-08T23:21:54.690Z,102652.63
2024-01-08T23:24:24.374Z,102657.28
2024-01-08T23:26:57.845Z,102645.66
2024-01-08T23:29:27.646Z,102648.84
2024-01-08T23:31:57.498Z,102650.09
2024-01-08T23:34:29.828Z,102645.09
2024-01-08T23:36:59.611Z,102641.31
2024-01-08T23:39:29.311Z,102645.88
2024-01-08T23:41:59.268Z,102636.63
2024-01-08T23:44:29.935Z,102639.09
2024-01-08T23:46:59.615Z,102634.38
2024-01-08T23:49:32.037Z,102632.94
2024-01-08T23:52:01.916Z,102625.31
2024-01-08T23:54:31.502Z,102628.88
2024-01-08T23:57:01.245Z,102633.63
2024-01-08T23:59:30.953Z,102628.53
